sensor_id;sensor_type;location;lat;lon;timestamp;P1;durP1;ratioP1;P2;durP2;ratioP2
72590;SDS011;60625;51.212;5.952;2023-04-30T00:01:56;9.50;;;4.90;;
72590;SDS011;60625;51.212;5.952;2023-04-30T00:06:56;13.90;;;6.20;;
72590;SDS011;60625;51.212;5.952;2023-04-30T00:11:57;10.70;;;5.30;;
72590;SDS011;60625;51.212;5.952;2023-04-30T00:16:57;10.10;;;5.00;;
72590;SDS011;60625;51.212;5.952;2023-04-30T00:21:58;10.50;;;5.50;;
72590;SDS011;60625;51.212;5.952;2023-04-30T00:27:00;10.90;;;5.30;;
72590;SDS011;60625;51.212;5.952;2023-04-30T00:32:01;10.10;;;6.00;;
72590;SDS011;60625;51.212;5.952;2023-04-30T00:37:01;11.00;;;6.40;;
72590;SDS011;60625;51.212;5.952;2023-04-30T00:42:03;11.00;;;6.00;;
72590;SDS011;60625;51.212;5.952;2023-04-30T00:47:04;12.00;;;6.90;;
72590;SDS011;60625;51.212;5.952;2023-04-30T00:52:05;11.90;;;6.40;;
72590;SDS011;60625;51.212;5.952;2023-04-30T00:57:08;12.80;;;6.70;;
72590;SDS011;60625;51.212;5.952;2023-04-30T01:02:12;13.60;;;6.50;;
72590;SDS011;60625;51.212;5.952;2023-04-30T01:07:14;13.80;;;6.80;;
72590;SDS011;60625;51.212;5.952;2023-04-30T01:17:38;13.90;;;7.50;;
72590;SDS011;60625;51.212;5.952;2023-04-30T01:22:54;15.30;;;8.20;;
72590;SDS011;60625;51.212;5.952;2023-04-30T01:28:16;14.80;;;8.10;;
72590;SDS011;60625;51.212;5.952;2023-04-30T01:33:19;17.30;;;8.90;;
72590;SDS011;60625;51.212;5.952;2023-04-30T01:44:46;15.00;;;8.20;;
72590;SDS011;60625;51.212;5.952;2023-04-30T01:55:27;14.60;;;7.90;;
72590;SDS011;60625;51.212;5.952;2023-04-30T02:00:32;15.00;;;7.90;;
72590;SDS011;60625;51.212;5.952;2023-04-30T02:05:33;16.30;;;9.00;;
72590;SDS011;60625;51.212;5.952;2023-04-30T02:10:34;16.10;;;8.80;;
72590;SDS011;60625;51.212;5.952;2023-04-30T02:15:36;17.90;;;8.70;;
72590;SDS011;60625;51.212;5.952;2023-04-30T02:20:36;16.10;;;9.20;;
72590;SDS011;60625;51.212;5.952;2023-04-30T02:25:37;16.00;;;8.70;;
72590;SDS011;60625;51.212;5.952;2023-04-30T02:30:38;17.20;;;9.40;;
72590;SDS011;60625;51.212;5.952;2023-04-30T02:35:39;18.90;;;10.40;;
72590;SDS011;60625;51.212;5.952;2023-04-30T02:40:40;17.40;;;10.70;;
72590;SDS011;60625;51.212;5.952;2023-04-30T02:45:42;16.90;;;9.90;;
72590;SDS011;60625;51.212;5.952;2023-04-30T02:50:42;15.20;;;9.20;;
72590;SDS011;60625;51.212;5.952;2023-04-30T02:55:42;15.70;;;9.50;;
72590;SDS011;60625;51.212;5.952;2023-04-30T03:00:43;15.70;;;8.90;;
72590;SDS011;60625;51.212;5.952;2023-04-30T03:05:43;17.10;;;9.90;;
72590;SDS011;60625;51.212;5.952;2023-04-30T03:10:44;20.50;;;9.90;;
72590;SDS011;60625;51.212;5.952;2023-04-30T03:15:44;18.70;;;11.10;;
72590;SDS011;60625;51.212;5.952;2023-04-30T03:20:45;17.90;;;10.90;;
72590;SDS011;60625;51.212;5.952;2023-04-30T03:25:46;18.70;;;10.70;;
72590;SDS011;60625;51.212;5.952;2023-04-30T03:30:47;18.70;;;11.10;;
72590;SDS011;60625;51.212;5.952;2023-04-30T03:35:47;19.00;;;10.50;;
72590;SDS011;60625;51.212;5.952;2023-04-30T03:40:49;20.40;;;11.70;;
72590;SDS011;60625;51.212;5.952;2023-04-30T03:45:50;20.40;;;11.00;;
72590;SDS011;60625;51.212;5.952;2023-04-30T03:50:51;22.30;;;12.40;;
72590;SDS011;60625;51.212;5.952;2023-04-30T03:55:52;20.30;;;11.80;;
72590;SDS011;60625;51.212;5.952;2023-04-30T04:00:54;23.10;;;12.30;;
72590;SDS011;60625;51.212;5.952;2023-04-30T04:05:55;22.10;;;11.80;;
72590;SDS011;60625;51.212;5.952;2023-04-30T04:10:56;23.70;;;13.00;;
72590;SDS011;60625;51.212;5.952;2023-04-30T04:15:56;27.60;;;13.20;;
72590;SDS011;60625;51.212;5.952;2023-04-30T04:20:57;22.70;;;13.80;;
72590;SDS011;60625;51.212;5.952;2023-04-30T04:25:57;23.80;;;12.80;;
72590;SDS011;60625;51.212;5.952;2023-04-30T04:30:59;22.50;;;12.80;;
72590;SDS011;60625;51.212;5.952;2023-04-30T04:36:03;20.00;;;12.10;;
72590;SDS011;60625;51.212;5.952;2023-04-30T04:41:04;23.50;;;13.60;;
72590;SDS011;60625;51.212;5.952;2023-04-30T04:46:05;22.90;;;13.10;;
72590;SDS011;60625;51.212;5.952;2023-04-30T04:51:09;18.50;;;10.70;;
72590;SDS011;60625;51.212;5.952;2023-04-30T04:56:10;20.60;;;11.70;;
72590;SDS011;60625;51.212;5.952;2023-04-30T05:01:10;19.80;;;11.80;;
72590;SDS011;60625;51.212;5.952;2023-04-30T05:06:11;21.60;;;13.20;;
72590;SDS011;60625;51.212;5.952;2023-04-30T05:11:11;23.50;;;14.20;;
72590;SDS011;60625;51.212;5.952;2023-04-30T05:16:12;23.90;;;13.90;;
72590;SDS011;60625;51.212;5.952;2023-04-30T05:21:13;24.70;;;13.50;;
72590;SDS011;60625;51.212;5.952;2023-04-30T05:26:13;20.80;;;13.80;;
72590;SDS011;60625;51.212;5.952;2023-04-30T05:31:13;25.60;;;14.60;;
72590;SDS011;60625;51.212;5.952;2023-04-30T05:36:14;25.30;;;14.60;;
72590;SDS011;60625;51.212;5.952;2023-04-30T05:41:14;26.60;;;14.20;;
72590;SDS011;60625;51.212;5.952;2023-04-30T05:46:15;27.60;;;15.30;;
72590;SDS011;60625;51.212;5.952;2023-04-30T05:51:15;25.30;;;15.20;;
72590;SDS011;60625;51.212;5.952;2023-04-30T05:56:16;26.40;;;16.30;;
72590;SDS011;60625;51.212;5.952;2023-04-30T06:01:18;27.30;;;15.80;;
72590;SDS011;60625;51.212;5.952;2023-04-30T06:06:20;25.40;;;15.30;;
72590;SDS011;60625;51.212;5.952;2023-04-30T06:11:20;24.90;;;14.20;;
72590;SDS011;60625;51.212;5.952;2023-04-30T06:16:22;26.60;;;16.20;;
72590;SDS011;60625;51.212;5.952;2023-04-30T06:21:23;25.30;;;14.70;;
72590;SDS011;60625;51.212;5.952;2023-04-30T06:26:26;27.70;;;15.20;;
72590;SDS011;60625;51.212;5.952;2023-04-30T06:31:26;27.50;;;15.50;;
72590;SDS011;60625;51.212;5.952;2023-04-30T06:36:27;25.60;;;16.20;;
72590;SDS011;60625;51.212;5.952;2023-04-30T06:41:28;25.00;;;16.10;;
72590;SDS011;60625;51.212;5.952;2023-04-30T06:46:28;29.30;;;15.00;;
72590;SDS011;60625;51.212;5.952;2023-04-30T06:51:29;25.10;;;15.70;;
72590;SDS011;60625;51.212;5.952;2023-04-30T06:56:30;26.40;;;13.70;;
72590;SDS011;60625;51.212;5.952;2023-04-30T07:01:30;26.30;;;15.50;;
72590;SDS011;60625;51.212;5.952;2023-04-30T07:06:31;26.80;;;13.50;;
72590;SDS011;60625;51.212;5.952;2023-04-30T07:11:31;20.90;;;13.10;;
72590;SDS011;60625;51.212;5.952;2023-04-30T07:16:32;19.90;;;11.50;;
72590;SDS011;60625;51.212;5.952;2023-04-30T07:21:32;23.10;;;14.20;;
72590;SDS011;60625;51.212;5.952;2023-04-30T07:26:33;22.20;;;12.50;;
72590;SDS011;60625;51.212;5.952;2023-04-30T07:31:33;22.10;;;13.10;;
72590;SDS011;60625;51.212;5.952;2023-04-30T07:36:33;20.70;;;11.70;;
72590;SDS011;60625;51.212;5.952;2023-04-30T07:41:34;21.90;;;11.20;;
72590;SDS011;60625;51.212;5.952;2023-04-30T07:46:34;18.60;;;11.10;;
72590;SDS011;60625;51.212;5.952;2023-04-30T07:51:35;21.90;;;12.00;;
72590;SDS011;60625;51.212;5.952;2023-04-30T07:56:36;21.60;;;12.30;;
72590;SDS011;60625;51.212;5.952;2023-04-30T08:01:37;16.40;;;10.40;;
72590;SDS011;60625;51.212;5.952;2023-04-30T08:06:37;16.50;;;9.50;;
72590;SDS011;60625;51.212;5.952;2023-04-30T08:11:37;17.70;;;10.80;;
72590;SDS011;60625;51.212;5.952;2023-04-30T08:16:38;19.10;;;9.60;;
72590;SDS011;60625;51.212;5.952;2023-04-30T08:21:39;17.60;;;9.40;;
72590;SDS011;60625;51.212;5.952;2023-04-30T08:26:39;13.70;;;8.90;;
72590;SDS011;60625;51.212;5.952;2023-04-30T08:31:40;14.10;;;7.70;;
72590;SDS011;60625;51.212;5.952;2023-04-30T08:36:40;16.00;;;8.00;;
72590;SDS011;60625;51.212;5.952;2023-04-30T08:41:45;12.00;;;7.60;;
72590;SDS011;60625;51.212;5.952;2023-04-30T08:46:50;11.00;;;7.30;;
72590;SDS011;60625;51.212;5.952;2023-04-30T08:51:53;10.70;;;6.30;;
72590;SDS011;60625;51.212;5.952;2023-04-30T08:56:54;7.90;;;4.70;;
72590;SDS011;60625;51.212;5.952;2023-04-30T09:01:54;9.20;;;5.20;;
72590;SDS011;60625;51.212;5.952;2023-04-30T09:06:55;10.10;;;4.70;;
72590;SDS011;60625;51.212;5.952;2023-04-30T09:12:12;8.50;;;4.50;;
72590;SDS011;60625;51.212;5.952;2023-04-30T09:17:20;8.60;;;4.60;;
72590;SDS011;60625;51.212;5.952;2023-04-30T09:22:22;8.80;;;3.40;;
72590;SDS011;60625;51.212;5.952;2023-04-30T09:27:23;7.30;;;3.70;;
72590;SDS011;60625;51.212;5.952;2023-04-30T09:32:24;7.80;;;3.20;;
72590;SDS011;60625;51.212;5.952;2023-04-30T09:37:37;6.60;;;3.70;;
72590;SDS011;60625;51.212;5.952;2023-04-30T09:42:38;6.90;;;3.50;;
72590;SDS011;60625;51.212;5.952;2023-04-30T09:47:39;10.90;;;4.60;;
72590;SDS011;60625;51.212;5.952;2023-04-30T09:52:40;8.30;;;3.90;;
72590;SDS011;60625;51.212;5.952;2023-04-30T09:57:40;10.00;;;5.20;;
72590;SDS011;60625;51.212;5.952;2023-04-30T10:02:41;7.90;;;4.50;;
72590;SDS011;60625;51.212;5.952;2023-04-30T10:07:41;9.20;;;5.30;;
72590;SDS011;60625;51.212;5.952;2023-04-30T10:12:47;9.30;;;4.60;;
72590;SDS011;60625;51.212;5.952;2023-04-30T10:18:00;8.40;;;3.80;;
72590;SDS011;60625;51.212;5.952;2023-04-30T10:23:03;7.50;;;4.10;;
72590;SDS011;60625;51.212;5.952;2023-04-30T10:28:04;7.60;;;4.00;;
72590;SDS011;60625;51.212;5.952;2023-04-30T10:39:04;5.30;;;2.80;;
72590;SDS011;60625;51.212;5.952;2023-04-30T10:44:06;6.50;;;2.90;;
72590;SDS011;60625;51.212;5.952;2023-04-30T10:49:07;6.70;;;2.60;;
72590;SDS011;60625;51.212;5.952;2023-04-30T10:54:08;5.00;;;2.50;;
72590;SDS011;60625;51.212;5.952;2023-04-30T10:59:09;6.70;;;2.80;;
72590;SDS011;60625;51.212;5.952;2023-04-30T11:04:10;5.60;;;2.60;;
72590;SDS011;60625;51.212;5.952;2023-04-30T11:09:10;6.00;;;2.90;;
72590;SDS011;60625;51.212;5.952;2023-04-30T11:14:12;6.60;;;2.80;;
72590;SDS011;60625;51.212;5.952;2023-04-30T11:19:21;4.40;;;2.10;;
72590;SDS011;60625;51.212;5.952;2023-04-30T11:29:54;6.00;;;2.90;;
72590;SDS011;60625;51.212;5.952;2023-04-30T11:34:55;5.60;;;3.00;;
72590;SDS011;60625;51.212;5.952;2023-04-30T11:40:01;6.80;;;2.50;;
72590;SDS011;60625;51.212;5.952;2023-04-30T11:45:07;10.40;;;3.50;;
72590;SDS011;60625;51.212;5.952;2023-04-30T11:50:20;7.50;;;3.00;;
72590;SDS011;60625;51.212;5.952;2023-04-30T11:55:27;6.90;;;3.10;;
72590;SDS011;60625;51.212;5.952;2023-04-30T12:00:29;7.60;;;2.50;;
72590;SDS011;60625;51.212;5.952;2023-04-30T12:05:30;7.10;;;2.90;;
72590;SDS011;60625;51.212;5.952;2023-04-30T12:10:31;7.70;;;2.90;;
72590;SDS011;60625;51.212;5.952;2023-04-30T12:15:32;6.50;;;2.80;;
72590;SDS011;60625;51.212;5.952;2023-04-30T12:20:33;8.30;;;3.00;;
72590;SDS011;60625;51.212;5.952;2023-04-30T12:25:41;6.30;;;3.60;;
72590;SDS011;60625;51.212;5.952;2023-04-30T12:30:43;6.70;;;3.00;;
72590;SDS011;60625;51.212;5.952;2023-04-30T12:35:44;5.80;;;3.60;;
72590;SDS011;60625;51.212;5.952;2023-04-30T12:40:47;8.40;;;4.00;;
72590;SDS011;60625;51.212;5.952;2023-04-30T12:45:50;7.90;;;3.80;;
72590;SDS011;60625;51.212;5.952;2023-04-30T12:50:54;7.20;;;3.10;;
72590;SDS011;60625;51.212;5.952;2023-04-30T12:56:12;7.00;;;4.10;;
72590;SDS011;60625;51.212;5.952;2023-04-30T13:01:21;8.30;;;4.80;;
72590;SDS011;60625;51.212;5.952;2023-04-30T13:06:23;8.10;;;4.60;;
72590;SDS011;60625;51.212;5.952;2023-04-30T13:11:24;6.60;;;3.30;;
72590;SDS011;60625;51.212;5.952;2023-04-30T13:16:25;5.00;;;2.90;;
72590;SDS011;60625;51.212;5.952;2023-04-30T13:21:26;5.40;;;3.00;;
72590;SDS011;60625;51.212;5.952;2023-04-30T13:26:27;6.60;;;2.70;;
72590;SDS011;60625;51.212;5.952;2023-04-30T13:31:27;5.30;;;2.00;;
72590;SDS011;60625;51.212;5.952;2023-04-30T13:36:28;5.80;;;2.90;;
72590;SDS011;60625;51.212;5.952;2023-04-30T13:41:28;4.90;;;2.80;;
72590;SDS011;60625;51.212;5.952;2023-04-30T13:46:29;5.60;;;3.00;;
72590;SDS011;60625;51.212;5.952;2023-04-30T13:51:30;6.40;;;2.50;;
72590;SDS011;60625;51.212;5.952;2023-04-30T13:56:31;5.60;;;3.10;;
72590;SDS011;60625;51.212;5.952;2023-04-30T14:01:32;6.70;;;3.00;;
72590;SDS011;60625;51.212;5.952;2023-04-30T14:06:33;8.50;;;3.40;;
72590;SDS011;60625;51.212;5.952;2023-04-30T14:11:33;7.70;;;3.40;;
72590;SDS011;60625;51.212;5.952;2023-04-30T14:16:34;5.20;;;2.70;;
72590;SDS011;60625;51.212;5.952;2023-04-30T14:21:35;7.70;;;2.40;;
72590;SDS011;60625;51.212;5.952;2023-04-30T14:26:36;5.20;;;2.60;;
72590;SDS011;60625;51.212;5.952;2023-04-30T14:31:36;5.80;;;3.00;;
72590;SDS011;60625;51.212;5.952;2023-04-30T14:36:37;5.30;;;2.50;;
72590;SDS011;60625;51.212;5.952;2023-04-30T14:41:38;5.10;;;2.70;;
72590;SDS011;60625;51.212;5.952;2023-04-30T14:46:38;6.70;;;2.60;;
72590;SDS011;60625;51.212;5.952;2023-04-30T14:51:40;5.00;;;2.30;;
72590;SDS011;60625;51.212;5.952;2023-04-30T14:56:40;7.30;;;2.70;;
72590;SDS011;60625;51.212;5.952;2023-04-30T15:01:41;5.00;;;2.40;;
72590;SDS011;60625;51.212;5.952;2023-04-30T15:06:41;7.30;;;2.50;;
72590;SDS011;60625;51.212;5.952;2023-04-30T15:11:42;4.50;;;2.10;;
72590;SDS011;60625;51.212;5.952;2023-04-30T15:16:42;4.90;;;2.30;;
72590;SDS011;60625;51.212;5.952;2023-04-30T15:21:43;5.90;;;2.10;;
72590;SDS011;60625;51.212;5.952;2023-04-30T15:26:43;4.90;;;2.00;;
72590;SDS011;60625;51.212;5.952;2023-04-30T15:31:44;4.90;;;2.30;;
72590;SDS011;60625;51.212;5.952;2023-04-30T15:36:44;4.30;;;2.00;;
72590;SDS011;60625;51.212;5.952;2023-04-30T15:41:45;5.30;;;1.90;;
72590;SDS011;60625;51.212;5.952;2023-04-30T15:46:46;4.20;;;1.70;;
72590;SDS011;60625;51.212;5.952;2023-04-30T15:51:48;5.30;;;1.80;;
72590;SDS011;60625;51.212;5.952;2023-04-30T15:56:50;4.00;;;1.70;;
72590;SDS011;60625;51.212;5.952;2023-04-30T16:01:50;4.80;;;1.80;;
72590;SDS011;60625;51.212;5.952;2023-04-30T16:06:51;4.90;;;1.80;;
72590;SDS011;60625;51.212;5.952;2023-04-30T16:11:52;4.30;;;1.80;;
72590;SDS011;60625;51.212;5.952;2023-04-30T16:16:52;3.90;;;2.00;;
72590;SDS011;60625;51.212;5.952;2023-04-30T16:21:54;5.00;;;1.90;;
72590;SDS011;60625;51.212;5.952;2023-04-30T16:26:54;7.60;;;2.10;;
72590;SDS011;60625;51.212;5.952;2023-04-30T16:31:56;3.70;;;1.40;;
72590;SDS011;60625;51.212;5.952;2023-04-30T16:36:56;4.70;;;1.70;;
72590;SDS011;60625;51.212;5.952;2023-04-30T16:41:57;4.50;;;1.60;;
72590;SDS011;60625;51.212;5.952;2023-04-30T16:46:57;6.30;;;1.90;;
72590;SDS011;60625;51.212;5.952;2023-04-30T16:51:59;4.20;;;2.00;;
72590;SDS011;60625;51.212;5.952;2023-04-30T16:57:01;4.10;;;1.80;;
72590;SDS011;60625;51.212;5.952;2023-04-30T17:02:04;7.50;;;2.10;;
72590;SDS011;60625;51.212;5.952;2023-04-30T17:07:05;5.60;;;2.00;;
72590;SDS011;60625;51.212;5.952;2023-04-30T17:12:06;4.00;;;1.90;;
72590;SDS011;60625;51.212;5.952;2023-04-30T17:17:07;4.00;;;1.80;;
72590;SDS011;60625;51.212;5.952;2023-04-30T17:22:07;4.40;;;1.90;;
72590;SDS011;60625;51.212;5.952;2023-04-30T17:27:08;3.90;;;1.70;;
72590;SDS011;60625;51.212;5.952;2023-04-30T17:32:08;4.30;;;1.80;;
72590;SDS011;60625;51.212;5.952;2023-04-30T17:37:10;6.10;;;2.10;;
72590;SDS011;60625;51.212;5.952;2023-04-30T17:42:11;5.40;;;2.00;;
72590;SDS011;60625;51.212;5.952;2023-04-30T17:47:12;6.10;;;2.10;;
72590;SDS011;60625;51.212;5.952;2023-04-30T17:52:13;4.40;;;1.70;;
72590;SDS011;60625;51.212;5.952;2023-04-30T17:57:13;5.30;;;2.00;;
72590;SDS011;60625;51.212;5.952;2023-04-30T18:02:14;5.50;;;2.00;;
72590;SDS011;60625;51.212;5.952;2023-04-30T18:07:14;6.40;;;2.00;;
72590;SDS011;60625;51.212;5.952;2023-04-30T18:12:16;7.10;;;1.70;;
72590;SDS011;60625;51.212;5.952;2023-04-30T18:17:16;4.60;;;1.60;;
72590;SDS011;60625;51.212;5.952;2023-04-30T18:22:17;4.00;;;1.50;;
72590;SDS011;60625;51.212;5.952;2023-04-30T18:27:19;5.90;;;2.10;;
72590;SDS011;60625;51.212;5.952;2023-04-30T18:32:20;4.70;;;1.90;;
72590;SDS011;60625;51.212;5.952;2023-04-30T18:37:21;3.80;;;1.40;;
72590;SDS011;60625;51.212;5.952;2023-04-30T18:42:23;4.40;;;1.20;;
72590;SDS011;60625;51.212;5.952;2023-04-30T18:47:24;6.20;;;1.50;;
72590;SDS011;60625;51.212;5.952;2023-04-30T18:52:25;4.80;;;1.40;;
72590;SDS011;60625;51.212;5.952;2023-04-30T18:57:25;4.00;;;1.60;;
72590;SDS011;60625;51.212;5.952;2023-04-30T19:02:26;4.00;;;1.40;;
72590;SDS011;60625;51.212;5.952;2023-04-30T19:07:27;4.90;;;1.60;;
72590;SDS011;60625;51.212;5.952;2023-04-30T19:12:27;3.10;;;1.40;;
72590;SDS011;60625;51.212;5.952;2023-04-30T19:17:27;2.60;;;1.00;;
72590;SDS011;60625;51.212;5.952;2023-04-30T19:22:28;4.80;;;1.10;;
72590;SDS011;60625;51.212;5.952;2023-04-30T19:27:29;4.60;;;1.30;;
72590;SDS011;60625;51.212;5.952;2023-04-30T19:32:29;4.80;;;1.30;;
72590;SDS011;60625;51.212;5.952;2023-04-30T19:37:30;3.50;;;1.20;;
72590;SDS011;60625;51.212;5.952;2023-04-30T19:42:31;3.10;;;1.00;;
72590;SDS011;60625;51.212;5.952;2023-04-30T19:47:31;4.70;;;1.30;;
72590;SDS011;60625;51.212;5.952;2023-04-30T19:52:32;4.30;;;1.30;;
72590;SDS011;60625;51.212;5.952;2023-04-30T19:57:33;3.60;;;1.30;;
72590;SDS011;60625;51.212;5.952;2023-04-30T20:02:35;3.80;;;1.30;;
72590;SDS011;60625;51.212;5.952;2023-04-30T20:07:35;4.00;;;1.40;;
72590;SDS011;60625;51.212;5.952;2023-04-30T20:12:36;2.90;;;1.10;;
72590;SDS011;60625;51.212;5.952;2023-04-30T20:17:36;3.70;;;1.40;;
72590;SDS011;60625;51.212;5.952;2023-04-30T20:22:37;4.80;;;1.20;;
72590;SDS011;60625;51.212;5.952;2023-04-30T20:27:38;3.70;;;1.30;;
72590;SDS011;60625;51.212;5.952;2023-04-30T20:32:39;3.60;;;1.50;;
72590;SDS011;60625;51.212;5.952;2023-04-30T20:37:40;3.70;;;1.50;;
72590;SDS011;60625;51.212;5.952;2023-04-30T20:42:40;8.50;;;1.20;;
72590;SDS011;60625;51.212;5.952;2023-04-30T20:47:41;4.20;;;1.80;;
72590;SDS011;60625;51.212;5.952;2023-04-30T20:52:42;5.30;;;1.40;;
72590;SDS011;60625;51.212;5.952;2023-04-30T20:57:43;4.00;;;1.70;;
72590;SDS011;60625;51.212;5.952;2023-04-30T21:02:43;6.40;;;2.10;;
72590;SDS011;60625;51.212;5.952;2023-04-30T21:07:44;4.70;;;1.90;;
72590;SDS011;60625;51.212;5.952;2023-04-30T21:12:44;5.50;;;1.90;;
72590;SDS011;60625;51.212;5.952;2023-04-30T21:17:45;5.20;;;2.20;;
72590;SDS011;60625;51.212;5.952;2023-04-30T21:22:45;6.00;;;2.20;;
72590;SDS011;60625;51.212;5.952;2023-04-30T21:27:46;5.50;;;2.10;;
72590;SDS011;60625;51.212;5.952;2023-04-30T21:32:46;6.40;;;1.70;;
72590;SDS011;60625;51.212;5.952;2023-04-30T21:37:47;5.60;;;2.10;;
72590;SDS011;60625;51.212;5.952;2023-04-30T21:42:48;6.90;;;2.30;;
72590;SDS011;60625;51.212;5.952;2023-04-30T21:47:49;5.60;;;2.20;;
72590;SDS011;60625;51.212;5.952;2023-04-30T21:52:50;6.90;;;2.50;;
72590;SDS011;60625;51.212;5.952;2023-04-30T21:57:50;5.00;;;2.00;;
72590;SDS011;60625;51.212;5.952;2023-04-30T22:02:50;6.90;;;2.70;;
72590;SDS011;60625;51.212;5.952;2023-04-30T22:07:51;6.90;;;2.10;;
72590;SDS011;60625;51.212;5.952;2023-04-30T22:12:51;8.30;;;2.40;;
72590;SDS011;60625;51.212;5.952;2023-04-30T22:17:52;6.10;;;2.50;;
72590;SDS011;60625;51.212;5.952;2023-04-30T22:22:53;6.30;;;2.20;;
72590;SDS011;60625;51.212;5.952;2023-04-30T22:27:53;7.90;;;2.50;;
72590;SDS011;60625;51.212;5.952;2023-04-30T22:32:56;7.90;;;2.80;;
72590;SDS011;60625;51.212;5.952;2023-04-30T22:37:57;7.90;;;2.60;;
72590;SDS011;60625;51.212;5.952;2023-04-30T22:42:59;7.60;;;3.60;;
72590;SDS011;60625;51.212;5.952;2023-04-30T22:48:00;8.60;;;2.90;;
72590;SDS011;60625;51.212;5.952;2023-04-30T22:53:01;9.80;;;3.00;;
72590;SDS011;60625;51.212;5.952;2023-04-30T22:58:01;6.20;;;2.40;;
72590;SDS011;60625;51.212;5.952;2023-04-30T23:03:02;8.80;;;3.00;;
72590;SDS011;60625;51.212;5.952;2023-04-30T23:08:02;7.30;;;2.40;;
72590;SDS011;60625;51.212;5.952;2023-04-30T23:13:03;6.80;;;2.70;;
72590;SDS011;60625;51.212;5.952;2023-04-30T23:18:04;6.80;;;2.80;;
72590;SDS011;60625;51.212;5.952;2023-04-30T23:23:05;5.70;;;2.30;;
72590;SDS011;60625;51.212;5.952;2023-04-30T23:28:06;6.10;;;2.40;;
72590;SDS011;60625;51.212;5.952;2023-04-30T23:33:06;6.70;;;2.30;;
72590;SDS011;60625;51.212;5.952;2023-04-30T23:38:07;6.30;;;2.20;;
72590;SDS011;60625;51.212;5.952;2023-04-30T23:43:07;6.00;;;2.00;;
72590;SDS011;60625;51.212;5.952;2023-04-30T23:48:08;10.10;;;2.40;;
72590;SDS011;60625;51.212;5.952;2023-04-30T23:53:09;6.20;;;2.50;;
72590;SDS011;60625;51.212;5.952;2023-04-30T23:58:10;7.20;;;2.50;;
